Time;durP1;ratioP1;P1;durP2;ratioP2;P2;SDS_P1;SDS_P2;PMS_P1;PMS_P2;Temp;Humidity;BMP_temperature;BMP_pressure;BME280_temperature;BME280_humidity;BME280_pressure;Samples;Min_cycle;Max_cycle;Signal;HPM_P1;HPM_P2
2022/01/17 00:02:19;;;;;;;16.90;9.40;;;4.00;99.90;;;;;;5085734;28;20386;-62
2022/01/17 00:04:46;;;;;;;18.65;9.27;;;4.00;99.90;;;;;;5094122;28;20437;-63
2022/01/17 00:07:11;;;;;;;17.88;9.60;;;4.10;99.90;;;;;;5095791;28;20860;-62
2022/01/17 00:09:37;;;;;;;16.17;9.90;;;5.70;99.90;;;;;;5089537;28;20390;-64
2022/01/17 00:12:03;;;;;;;17.58;9.45;;;4.20;99.90;;;;;;5093473;28;20379;-63
2022/01/17 00:14:34;;;;;;;16.90;9.50;;;4.30;99.90;;;;;;5094114;28;20465;-63
2022/01/17 00:19:42;;;;;;;17.52;9.80;;;5.70;99.90;;;;;;5096050;28;20420;-63
2022/01/17 00:22:08;;;;;;;17.48;10.80;;;4.10;99.90;;;;;;5090539;28;20385;-62
2022/01/17 00:24:34;;;;;;;24.20;12.82;;;4.10;99.90;;;;;;5098152;28;20405;-64
2022/01/17 00:27:00;;;;;;;21.30;13.10;;;4.00;99.90;;;;;;5096136;28;20483;-62
2022/01/17 00:29:26;;;;;;;26.70;13.40;;;4.10;99.90;;;;;;5094138;28;20372;-62
2022/01/17 00:31:52;;;;;;;23.60;13.82;;;4.20;99.90;;;;;;5096673;28;20378;-62
2022/01/17 00:34:18;;;;;;;28.52;14.80;;;4.10;99.90;;;;;;5093631;28;20405;-62
2022/01/17 00:36:43;;;;;;;30.77;17.10;;;4.00;99.90;;;;;;5099163;28;20399;-63
2022/01/17 00:39:09;;;;;;;29.70;16.55;;;4.30;99.90;;;;;;5092253;28;20380;-62
2022/01/17 00:41:35;;;;;;;33.00;16.90;;;3.80;99.90;;;;;;5096294;28;20392;-62
2022/01/17 00:44:01;;;;;;;36.23;16.70;;;3.70;99.90;;;;;;5091019;28;20380;-62
2022/01/17 00:46:27;;;;;;;32.17;16.10;;;3.60;99.90;;;;;;5097432;28;20395;-62
2022/01/17 00:48:53;;;;;;;32.55;18.13;;;3.40;99.90;;;;;;5095545;28;20391;-62
2022/01/17 00:51:21;;;;;;;36.63;19.05;;;4.70;99.90;;;;;;5092895;28;20411;-62
2022/01/17 00:53:47;;;;;;;31.65;17.80;;;4.60;99.90;;;;;;5094895;28;20380;-63
2022/01/17 00:56:14;;;;;;;37.60;19.58;;;3.20;99.90;;;;;;5090857;28;20416;-62
2022/01/17 00:58:40;;;;;;;40.88;19.70;;;3.10;99.90;;;;;;5097598;28;20479;-62
2022/01/17 01:01:06;;;;;;;36.45;17.98;;;3.10;99.90;;;;;;5089454;28;20499;-62
2022/01/17 01:03:32;;;;;;;33.08;17.30;;;3.00;99.90;;;;;;5092187;28;20384;-62
2022/01/17 01:05:57;;;;;;;40.13;19.98;;;2.90;99.90;;;;;;5088476;28;20380;-60
2022/01/17 01:08:23;;;;;;;35.20;19.27;;;2.90;99.90;;;;;;5096860;28;20430;-62
2022/01/17 01:10:48;;;;;;;36.97;19.13;;;2.90;99.90;;;;;;5088885;28;20400;-63
2022/01/17 01:13:17;;;;;;;36.70;20.00;;;4.50;99.90;;;;;;5089175;28;21012;-62
2022/01/17 01:18:18;;;;;;;38.63;19.73;;;2.80;99.90;;;;;;5096053;28;20392;-60
2022/01/17 01:28:44;;;;;;;37.10;20.10;;;3.30;99.90;;;;;;5093128;28;20369;-61
2022/01/17 01:31:15;;;;;;;36.90;20.43;;;3.40;99.90;;;;;;5094269;28;20378;-60
2022/01/17 01:33:48;;;;;;;37.58;18.02;;;2.70;99.90;;;;;;5084659;28;20382;-61
2022/01/17 01:36:22;;;;;;;44.47;21.42;;;2.60;99.90;;;;;;5093483;28;20395;-60
2022/01/17 01:38:48;;;;;;;32.70;17.75;;;2.60;99.90;;;;;;5098362;28;20374;-61
2022/01/17 01:41:14;;;;;;;41.78;21.77;;;1.90;99.90;;;;;;5087230;28;20412;-61
2022/01/17 01:43:39;;;;;;;39.80;21.70;;;2.60;99.90;;;;;;5092467;28;20399;-61
2022/01/17 01:46:06;;;;;;;40.40;21.10;;;2.60;99.90;;;;;;5089472;28;20403;-60
2022/01/17 01:48:34;;;;;;;41.47;20.60;;;3.70;99.90;;;;;;5099370;28;20388;-60
2022/01/17 01:51:00;;;;;;;37.80;19.48;;;2.60;99.90;;;;;;5084873;28;20437;-60
2022/01/17 01:53:26;;;;;;;42.95;22.05;;;2.70;99.90;;;;;;5091695;28;20410;-60
2022/01/17 01:55:55;;;;;;;38.13;19.10;;;2.70;99.90;;;;;;5094509;28;20777;-60
2022/01/17 01:58:22;;;;;;;46.30;22.55;;;2.60;99.90;;;;;;5093506;28;20474;-60
2022/01/17 02:00:48;;;;;;;40.30;21.30;;;2.60;99.90;;;;;;5092026;28;20506;-60
2022/01/17 02:03:14;;;;;;;42.10;21.42;;;2.70;99.90;;;;;;5092145;28;20374;-61
2022/01/17 02:05:40;;;;;;;42.20;21.05;;;3.40;99.90;;;;;;5095909;28;20480;-61
2022/01/17 02:08:09;;;;;;;43.38;20.77;;;4.00;99.90;;;;;;5094867;28;20682;-61
2022/01/17 02:10:35;;;;;;;39.38;21.48;;;3.20;99.90;;;;;;5090824;28;20393;-61
2022/01/17 02:13:01;;;;;;;38.20;20.93;;;3.50;99.90;;;;;;5092446;28;20384;-61
2022/01/17 02:15:27;;;;;;;42.45;21.30;;;3.00;99.90;;;;;;5091058;28;20384;-61
2022/01/17 02:17:54;;;;;;;41.63;20.08;;;3.60;99.90;;;;;;5092350;28;20878;-60
2022/01/17 02:21:10;;;;;;;37.83;19.75;;;3.00;99.90;;;;;;5094997;28;20817;-61
2022/01/17 02:23:19;;;;;;;40.88;20.42;;;3.00;99.90;;;;;;5089055;28;20853;-60
2022/01/17 02:25:45;;;;;;;38.40;19.57;;;3.00;99.90;;;;;;5089832;28;20376;-61
2022/01/17 02:28:10;;;;;;;41.20;21.03;;;3.00;99.90;;;;;;5094280;28;20408;-61
2022/01/17 02:30:36;;;;;;;38.60;21.10;;;3.10;99.90;;;;;;5094475;28;20388;-61
2022/01/17 02:33:03;;;;;;;40.07;20.63;;;3.20;99.90;;;;;;5092106;28;20380;-63
2022/01/17 02:35:30;;;;;;;41.83;21.45;;;3.30;99.90;;;;;;5094864;28;20854;-63
2022/01/17 02:37:57;;;;;;;45.70;22.77;;;3.30;99.90;;;;;;5094647;28;20392;-63
2022/01/17 02:40:23;;;;;;;38.15;21.10;;;3.30;99.90;;;;;;5089036;28;20399;-63
2022/01/17 02:43:00;;;;;;;44.72;22.77;;;3.30;99.90;;;;;;5089429;28;20376;-62
2022/01/17 02:48:05;;;;;;;44.15;22.60;;;3.20;99.90;;;;;;5095271;28;20383;-62
2022/01/17 02:50:31;;;;;;;44.20;23.23;;;3.00;99.90;;;;;;5086906;28;20387;-62
2022/01/17 02:53:02;;;;;;;46.63;22.77;;;3.10;99.90;;;;;;5094042;28;20378;-62
2022/01/17 02:55:29;;;;;;;47.47;23.75;;;3.00;99.90;;;;;;5087789;28;20390;-62
2022/01/17 02:57:55;;;;;;;43.78;21.75;;;3.10;99.90;;;;;;5094568;28;20374;-62
2022/01/17 03:00:20;;;;;;;45.60;22.10;;;3.20;99.90;;;;;;5090997;28;20406;-62
2022/01/17 03:02:48;;;;;;;40.67;22.47;;;3.20;99.90;;;;;;5092653;28;20377;-62
2022/01/17 03:05:18;;;;;;;42.20;22.77;;;3.20;99.90;;;;;;5092484;28;21105;-62
2022/01/17 03:07:45;;;;;;;42.95;21.90;;;3.20;99.90;;;;;;5092246;28;20395;-62
2022/01/17 03:12:49;;;;;;;39.67;21.38;;;3.20;99.90;;;;;;5092725;28;20391;-62
2022/01/17 03:15:15;;;;;;;41.63;22.20;;;3.30;99.90;;;;;;5091760;28;20394;-62
2022/01/17 03:17:41;;;;;;;43.42;22.38;;;3.40;99.90;;;;;;5100423;28;20376;-63
2022/01/17 03:20:07;;;;;;;39.55;22.40;;;3.40;99.90;;;;;;5101106;28;20863;-62
2022/01/17 03:22:33;;;;;;;39.60;22.08;;;3.40;99.90;;;;;;5093027;28;20395;-62
2022/01/17 03:24:59;;;;;;;44.13;22.98;;;3.50;99.90;;;;;;5097062;28;20374;-62
2022/01/17 03:27:25;;;;;;;42.30;22.00;;;3.40;99.90;;;;;;5097565;28;20708;-62
2022/01/17 03:29:50;;;;;;;39.43;21.20;;;3.40;99.90;;;;;;5100262;28;20476;-62
2022/01/17 03:32:16;;;;;;;42.97;21.65;;;3.30;99.90;;;;;;5095911;28;20372;-62
2022/01/17 03:34:42;;;;;;;41.20;21.30;;;3.10;99.90;;;;;;5094610;28;20368;-62
2022/01/17 03:37:08;;;;;;;45.30;21.85;;;3.10;99.90;;;;;;5098088;28;20369;-62
2022/01/17 03:39:34;;;;;;;42.58;22.25;;;3.10;99.90;;;;;;5096825;28;20416;-62
2022/01/17 03:42:00;;;;;;;41.78;21.27;;;4.70;99.90;;;;;;5097656;28;20395;-62
2022/01/17 03:44:25;;;;;;;43.27;22.80;;;4.50;99.90;;;;;;5094883;28;20849;-62
2022/01/17 03:46:51;;;;;;;37.03;20.33;;;3.20;99.90;;;;;;5095243;28;20395;-61
2022/01/17 03:49:17;;;;;;;39.17;20.77;;;3.70;99.90;;;;;;5091559;28;20387;-62
2022/01/17 03:51:43;;;;;;;38.30;19.90;;;3.20;99.90;;;;;;5101064;28;20493;-62
2022/01/17 03:54:08;;;;;;;40.03;20.42;;;3.20;99.90;;;;;;5090752;28;20392;-62
2022/01/17 03:56:34;;;;;;;39.53;19.97;;;3.10;99.90;;;;;;5093386;28;20391;-62
2022/01/17 03:59:00;;;;;;;39.57;19.83;;;3.00;99.90;;;;;;5096685;28;20419;-60
2022/01/17 04:01:25;;;;;;;37.17;19.23;;;2.90;99.90;;;;;;5097480;28;20407;-60
2022/01/17 04:03:51;;;;;;;33.43;18.80;;;2.90;99.90;;;;;;5094847;28;20872;-60
2022/01/17 04:06:17;;;;;;;38.10;17.90;;;3.90;99.90;;;;;;5095914;28;21028;-60
2022/01/17 04:08:43;;;;;;;32.28;17.10;;;3.70;99.90;;;;;;5095150;28;20486;-60
2022/01/17 04:11:09;;;;;;;35.15;18.40;;;2.70;99.90;;;;;;5094940;28;20473;-60
2022/01/17 04:13:35;;;;;;;36.08;18.38;;;2.70;99.90;;;;;;5092676;28;20379;-60
2022/01/17 04:16:02;;;;;;;36.03;17.58;;;3.30;99.90;;;;;;5086439;28;20502;-60
2022/01/17 04:18:28;;;;;;;32.08;16.02;;;2.70;99.90;;;;;;5097259;28;20699;-60
2022/01/17 04:20:54;;;;;;;33.33;15.82;;;2.70;99.90;;;;;;5094869;28;20401;-61
2022/01/17 04:23:20;;;;;;;31.20;16.02;;;3.20;99.90;;;;;;5095708;28;20405;-60
2022/01/17 04:25:46;;;;;;;34.22;18.23;;;2.80;99.90;;;;;;5091464;28;20507;-60
2022/01/17 04:28:13;;;;;;;34.72;18.05;;;2.70;99.90;;;;;;5093883;28;20487;-60
2022/01/17 04:30:41;;;;;;;34.95;17.02;;;2.70;99.90;;;;;;5091161;28;20389;-60
2022/01/17 04:33:07;;;;;;;34.97;18.80;;;2.70;99.90;;;;;;5086036;28;20381;-60
2022/01/17 04:35:35;;;;;;;34.55;18.63;;;2.70;99.90;;;;;;5087147;28;20378;-60
2022/01/17 04:38:06;;;;;;;40.33;19.47;;;2.70;99.90;;;;;;5084602;28;20381;-60
2022/01/17 04:40:36;;;;;;;34.78;18.35;;;2.80;99.90;;;;;;5080897;28;20404;-60
2022/01/17 04:43:06;;;;;;;36.40;18.53;;;2.80;99.90;;;;;;5070976;28;20470;-60
2022/01/17 04:45:32;;;;;;;34.22;17.92;;;2.90;99.90;;;;;;5071922;28;20391;-60
2022/01/17 04:47:58;;;;;;;34.33;18.33;;;4.00;99.90;;;;;;5071728;28;20438;-60
2022/01/17 04:50:26;;;;;;;34.50;17.08;;;4.20;99.90;;;;;;5071357;28;20828;-60
2022/01/17 04:52:55;;;;;;;33.35;17.90;;;2.80;99.90;;;;;;5071613;28;20571;-60
2022/01/17 04:55:22;;;;;;;33.53;16.65;;;2.90;99.90;;;;;;5070877;28;20387;-60
2022/01/17 04:57:48;;;;;;;34.38;17.95;;;3.10;99.90;;;;;;5070686;28;20430;-62
2022/01/17 05:00:18;;;;;;;36.45;17.17;;;3.00;99.90;;;;;;5075762;28;20394;-62
2022/01/17 05:02:44;;;;;;;34.10;17.20;;;3.00;99.90;;;;;;5076184;28;20395;-62
2022/01/17 05:05:11;;;;;;;33.78;17.30;;;3.00;99.90;;;;;;5075428;28;20398;-70
2022/01/17 05:07:38;;;;;;;29.87;15.70;;;4.40;99.90;;;;;;5071021;28;20884;-62
2022/01/17 05:10:08;;;;;;;33.97;16.30;;;3.00;99.90;;;;;;5069049;28;20482;-61
2022/01/17 05:12:34;;;;;;;30.48;15.88;;;3.10;99.90;;;;;;5071254;28;20380;-61
2022/01/17 05:14:59;;;;;;;30.45;15.50;;;3.00;99.90;;;;;;5068901;28;21025;-62
2022/01/17 05:19:58;;;;;;;29.23;15.45;;;3.00;99.90;;;;;;5089698;28;20453;-61
2022/01/17 05:22:32;;;;;;;30.88;15.20;;;3.00;99.90;;;;;;5084344;28;20403;-61
2022/01/17 05:24:59;;;;;;;27.65;14.40;;;3.10;99.90;;;;;;5081918;28;20401;-62
2022/01/17 05:27:24;;;;;;;22.40;12.80;;;3.10;99.90;;;;;;5077259;28;20478;-61
2022/01/17 05:29:50;;;;;;;23.38;12.48;;;3.10;99.90;;;;;;5080628;28;20493;-63
2022/01/17 05:32:16;;;;;;;24.10;12.50;;;3.30;99.90;;;;;;5089944;28;20386;-60
2022/01/17 05:34:42;;;;;;;24.90;13.30;;;4.00;99.90;;;;;;5070678;28;20392;-60
2022/01/17 05:37:09;;;;;;;23.63;12.60;;;3.10;99.90;;;;;;5086049;28;20428;-61
2022/01/17 05:39:35;;;;;;;23.58;11.82;;;3.90;99.90;;;;;;5085074;28;20400;-63
2022/01/17 05:42:01;;;;;;;23.77;11.83;;;3.20;99.90;;;;;;5070142;28;20398;-62
2022/01/17 05:44:27;;;;;;;24.47;11.77;;;3.20;99.90;;;;;;5070210;28;20734;-62
2022/01/17 05:46:53;;;;;;;23.45;12.68;;;3.40;99.90;;;;;;5069733;28;20391;-62
2022/01/17 05:49:18;;;;;;;23.63;11.80;;;3.40;99.90;;;;;;5079099;28;20395;-61
2022/01/17 05:51:44;;;;;;;25.27;12.73;;;3.40;99.90;;;;;;5070255;28;20869;-62
2022/01/17 05:54:10;;;;;;;21.73;11.70;;;3.50;99.90;;;;;;5083349;28;20926;-62
2022/01/17 05:56:35;;;;;;;24.33;11.48;;;3.70;99.90;;;;;;5074264;28;20400;-62
2022/01/17 05:59:01;;;;;;;21.03;11.47;;;3.50;99.90;;;;;;5070454;28;20425;-62
2022/01/17 06:01:27;;;;;;;21.30;11.52;;;3.40;99.90;;;;;;5070013;28;20396;-61
2022/01/17 06:03:52;;;;;;;22.15;10.63;;;3.50;99.90;;;;;;5070024;28;20403;-62
2022/01/17 06:06:18;;;;;;;19.80;10.33;;;3.50;99.90;;;;;;5069080;28;20372;-62
2022/01/17 06:08:44;;;;;;;21.08;10.70;;;3.40;99.90;;;;;;5068607;28;20806;-61
2022/01/17 06:11:09;;;;;;;19.73;10.67;;;3.50;99.90;;;;;;5069485;28;20737;-62
2022/01/17 06:13:35;;;;;;;20.83;11.25;;;3.60;99.90;;;;;;5070023;28;20451;-62
2022/01/17 06:16:01;;;;;;;20.10;10.70;;;3.60;99.90;;;;;;5078501;28;20669;-62
2022/01/17 06:18:26;;;;;;;19.70;10.50;;;4.60;99.90;;;;;;5089779;28;20389;-62
2022/01/17 06:20:52;;;;;;;18.40;10.20;;;3.80;99.90;;;;;;5082838;28;20407;-62
2022/01/17 06:23:21;;;;;;;18.95;10.05;;;4.20;99.90;;;;;;5082427;28;21129;-62
2022/01/17 06:25:46;;;;;;;18.33;9.48;;;4.10;99.90;;;;;;5090376;28;20378;-62
2022/01/17 06:28:12;;;;;;;18.50;10.10;;;4.00;99.90;;;;;;5089430;28;20389;-62
2022/01/17 06:30:38;;;;;;;18.17;9.73;;;4.00;99.90;;;;;;5088930;28;20835;-62
2022/01/17 06:33:03;;;;;;;17.90;9.57;;;4.10;99.90;;;;;;5070923;28;20530;-62
2022/01/17 06:35:30;;;;;;;20.55;9.93;;;4.10;99.90;;;;;;5089099;28;20595;-62
2022/01/17 06:37:56;;;;;;;15.70;9.20;;;4.10;99.90;;;;;;5090284;28;20865;-62
2022/01/17 06:40:22;;;;;;;19.43;10.63;;;3.90;99.90;;;;;;5070589;28;20405;-63
2022/01/17 06:42:50;;;;;;;16.70;9.98;;;4.70;99.90;;;;;;5082791;28;20386;-62
2022/01/17 06:45:18;;;;;;;17.83;9.80;;;4.00;99.90;;;;;;5080788;28;20390;-62
2022/01/17 06:47:44;;;;;;;18.45;9.82;;;4.00;99.90;;;;;;5075595;28;20772;-63
2022/01/17 06:50:11;;;;;;;18.67;10.37;;;4.00;99.90;;;;;;5075608;28;20854;-62
2022/01/17 06:52:38;;;;;;;17.38;9.90;;;3.80;99.90;;;;;;5077512;28;20403;-62
2022/01/17 06:55:05;;;;;;;20.65;10.23;;;3.80;99.90;;;;;;5068438;28;20379;-62
2022/01/17 06:57:30;;;;;;;20.02;10.60;;;3.90;99.90;;;;;;5069408;28;20375;-62
2022/01/17 06:59:56;;;;;;;18.93;10.17;;;4.00;99.90;;;;;;5069535;28;20499;-62
2022/01/17 07:02:22;;;;;;;18.90;9.93;;;4.60;99.90;;;;;;5067421;28;20412;-63
2022/01/17 07:04:47;;;;;;;17.02;9.80;;;4.10;99.90;;;;;;5075538;28;20404;-62
2022/01/17 07:07:13;;;;;;;21.53;10.93;;;4.00;99.90;;;;;;5088073;28;20394;-62
2022/01/17 07:09:39;;;;;;;20.00;10.88;;;4.00;99.90;;;;;;5089547;28;20388;-62
2022/01/17 07:12:05;;;;;;;19.63;9.70;;;3.90;99.90;;;;;;5088750;28;20381;-63
2022/01/17 07:14:31;;;;;;;17.77;9.82;;;3.90;99.90;;;;;;5089197;28;20524;-62
2022/01/17 07:16:58;;;;;;;18.33;10.10;;;5.10;99.90;;;;;;5088951;28;20441;-62
2022/01/17 07:19:24;;;;;;;20.70;10.25;;;3.70;99.90;;;;;;5088551;28;20394;-63
2022/01/17 07:21:52;;;;;;;19.80;10.30;;;3.60;99.90;;;;;;5088962;28;20441;-62
2022/01/17 07:24:18;;;;;;;17.08;9.18;;;3.60;99.90;;;;;;5068724;28;20384;-63
2022/01/17 07:26:44;;;;;;;19.03;10.10;;;3.80;99.90;;;;;;5068549;28;20874;-62
2022/01/17 07:29:10;;;;;;;19.08;9.70;;;3.60;99.90;;;;;;5068371;28;20376;-62
2022/01/17 07:31:36;;;;;;;19.15;9.50;;;3.60;99.90;;;;;;5070971;28;20406;-63
2022/01/17 07:34:02;;;;;;;17.73;9.90;;;3.80;99.90;;;;;;5078007;28;20831;-62
2022/01/17 07:36:29;;;;;;;16.75;9.43;;;3.90;99.90;;;;;;5068833;28;20410;-62
2022/01/17 07:38:54;;;;;;;16.13;8.13;;;4.00;99.90;;;;;;5069049;28;20379;-63
2022/01/17 07:41:20;;;;;;;15.03;8.90;;;4.10;99.90;;;;;;5086979;28;20494;-62
2022/01/17 07:43:47;;;;;;;16.03;9.30;;;4.10;99.90;;;;;;5084149;28;20399;-63
2022/01/17 07:46:23;;;;;;;15.07;8.60;;;4.70;99.90;;;;;;5076238;28;20434;-62
2022/01/17 07:51:30;;;;;;;15.10;8.88;;;4.30;99.90;;;;;;5089065;28;20477;-63
2022/01/17 07:53:57;;;;;;;15.35;8.05;;;4.40;99.90;;;;;;5089520;28;20465;-63
2022/01/17 07:56:26;;;;;;;15.20;8.30;;;4.50;99.90;;;;;;5086808;28;20455;-62
2022/01/17 07:58:53;;;;;;;15.10;8.70;;;4.50;99.90;;;;;;5092560;28;20416;-63
2022/01/17 08:01:19;;;;;;;16.33;9.18;;;4.50;99.90;;;;;;5091950;28;20470;-62
2022/01/17 08:03:45;;;;;;;15.97;8.80;;;4.60;99.90;;;;;;5092989;28;20417;-62
2022/01/17 08:06:11;;;;;;;14.70;7.90;;;4.70;99.90;;;;;;5090625;28;20887;-62
2022/01/17 08:08:37;;;;;;;17.73;9.53;;;4.60;99.90;;;;;;5090510;28;20891;-62
2022/01/17 08:11:03;;;;;;;15.13;8.33;;;4.50;99.90;;;;;;5087649;28;20398;-62
2022/01/17 08:13:28;;;;;;;15.57;8.52;;;4.40;99.90;;;;;;5077569;28;20469;-63
2022/01/17 08:15:55;;;;;;;20.47;9.60;;;5.00;99.90;;;;;;5089596;28;20763;-62
2022/01/17 08:18:21;;;;;;;17.67;8.67;;;4.40;99.90;;;;;;5091891;28;20569;-62
2022/01/17 08:20:47;;;;;;;15.38;8.00;;;4.50;99.90;;;;;;5092482;28;21001;-62
2022/01/17 08:23:13;;;;;;;16.38;8.82;;;4.40;99.90;;;;;;5090100;28;20917;-62
2022/01/17 08:25:39;;;;;;;15.98;8.30;;;4.30;99.90;;;;;;5087989;28;20422;-62
2022/01/17 08:28:04;;;;;;;17.33;9.10;;;5.40;99.90;;;;;;5077145;28;20382;-62
2022/01/17 08:30:32;;;;;;;16.95;9.48;;;4.30;99.90;;;;;;5082808;28;20390;-62
2022/01/17 08:32:58;;;;;;;17.47;9.00;;;4.40;99.90;;;;;;5092330;28;20382;-62
2022/01/17 08:35:25;;;;;;;16.58;8.48;;;6.40;99.90;;;;;;5091421;28;20406;-63
2022/01/17 08:37:50;;;;;;;16.80;8.85;;;4.70;99.90;;;;;;5089323;28;20399;-63
2022/01/17 08:40:18;;;;;;;17.50;8.65;;;4.80;99.90;;;;;;5082302;28;20409;-62
2022/01/17 08:42:44;;;;;;;18.40;8.90;;;4.80;99.90;;;;;;5085606;28;20544;-62
2022/01/17 08:45:12;;;;;;;16.57;8.23;;;4.80;99.90;;;;;;5070835;28;20390;-62
2022/01/17 08:47:37;;;;;;;15.82;8.60;;;5.00;99.90;;;;;;5090375;28;20378;-62
2022/01/17 08:50:05;;;;;;;16.00;8.30;;;5.10;99.90;;;;;;5091617;28;20389;-62
2022/01/17 08:52:31;;;;;;;15.37;8.17;;;5.20;99.90;;;;;;5089698;28;20374;-62
2022/01/17 08:54:57;;;;;;;16.70;8.63;;;5.20;99.90;;;;;;5080880;28;20374;-62
2022/01/17 08:57:24;;;;;;;14.85;8.27;;;6.70;99.90;;;;;;5090885;28;20457;-60
2022/01/17 08:59:50;;;;;;;14.38;7.55;;;5.40;99.90;;;;;;5090963;28;20771;-60
2022/01/17 09:02:17;;;;;;;12.88;6.85;;;5.50;99.90;;;;;;5077408;28;20392;-60
2022/01/17 09:04:42;;;;;;;13.73;7.10;;;5.70;99.90;;;;;;5091296;28;20457;-60
2022/01/17 09:07:11;;;;;;;13.15;7.15;;;5.80;99.90;;;;;;5090509;28;20480;-60
2022/01/17 09:09:38;;;;;;;13.65;7.28;;;5.90;99.90;;;;;;5081785;28;20418;-60
2022/01/17 09:12:07;;;;;;;14.63;7.70;;;6.10;99.90;;;;;;5089201;28;20439;-61
2022/01/17 09:14:32;;;;;;;16.08;7.70;;;6.10;99.90;;;;;;5088874;28;20440;-60
2022/01/17 09:16:58;;;;;;;13.90;7.40;;;6.90;99.90;;;;;;5090501;28;20420;-61
2022/01/17 09:19:24;;;;;;;15.85;8.10;;;7.40;99.90;;;;;;5087960;28;20416;-60
2022/01/17 09:21:49;;;;;;;15.00;7.33;;;7.30;99.90;;;;;;5090614;28;20417;-60
2022/01/17 09:24:15;;;;;;;15.63;8.10;;;6.70;99.90;;;;;;5089954;28;20755;-61
2022/01/17 09:26:41;;;;;;;14.85;8.52;;;6.00;99.90;;;;;;5091482;28;20379;-60
2022/01/17 09:29:06;;;;;;;14.63;7.50;;;6.30;99.90;;;;;;5090163;28;20963;-60
2022/01/17 09:31:32;;;;;;;15.05;8.00;;;6.00;99.90;;;;;;5089732;28;20382;-60
2022/01/17 09:33:58;;;;;;;14.17;7.70;;;6.00;99.90;;;;;;5090284;28;20405;-60
2022/01/17 09:36:25;;;;;;;14.60;7.00;;;5.80;99.90;;;;;;5090538;28;20378;-60
2022/01/17 09:38:52;;;;;;;13.35;6.57;;;5.90;99.90;;;;;;5089615;28;20375;-61
2022/01/17 09:41:17;;;;;;;14.50;6.82;;;5.80;99.90;;;;;;5090296;28;20409;-60
2022/01/17 09:43:43;;;;;;;12.20;6.83;;;6.00;99.90;;;;;;5089220;28;20382;-60
2022/01/17 09:46:10;;;;;;;13.38;7.30;;;5.90;99.90;;;;;;5090239;28;20386;-60
2022/01/17 09:48:38;;;;;;;13.98;7.13;;;5.80;99.90;;;;;;5087858;28;20410;-60
2022/01/17 09:51:17;;;;;;;13.13;6.55;;;5.80;99.90;;;;;;5086090;28;20405;-60
2022/01/17 09:53:43;;;;;;;11.50;6.80;;;5.90;99.90;;;;;;5087444;28;20849;-60
2022/01/17 09:56:09;;;;;;;15.57;7.30;;;5.80;99.90;;;;;;5089970;28;20443;-61
2022/01/17 09:58:37;;;;;;;12.75;6.50;;;6.00;99.90;;;;;;5077777;28;20897;-61
2022/01/17 10:01:04;;;;;;;12.43;6.70;;;5.90;99.90;;;;;;5071566;28;20410;-61
2022/01/17 10:03:32;;;;;;;11.13;6.60;;;5.80;99.90;;;;;;5090518;28;20435;-61
2022/01/17 10:05:57;;;;;;;12.32;6.15;;;5.70;99.90;;;;;;5088299;28;20408;-61
2022/01/17 10:08:24;;;;;;;11.10;6.33;;;5.80;99.90;;;;;;5089423;28;20420;-60
2022/01/17 10:11:00;;;;;;;11.18;5.80;;;5.90;99.90;;;;;;5090736;28;20413;-60
2022/01/17 10:13:27;;;;;;;11.05;6.32;;;5.90;99.90;;;;;;5089557;28;20394;-60
2022/01/17 10:16:07;;;;;;;11.73;5.50;;;5.80;99.90;;;;;;5089716;28;20924;-60
2022/01/17 10:18:46;;;;;;;11.48;6.88;;;5.70;99.90;;;;;;5090210;28;20514;-61
2022/01/17 10:21:18;;;;;;;14.30;7.15;;;5.70;99.90;;;;;;5088892;28;20875;-61
2022/01/17 10:24:09;;;;;;;13.63;7.40;;;5.90;99.90;;;;;;5088562;28;20790;-60
2022/01/17 10:29:38;;;;;;;12.23;7.10;;;6.20;99.90;;;;;;5089089;28;20847;-60
2022/01/17 10:35:07;;;;;;;11.55;6.25;;;5.90;99.90;;;;;;5089644;28;20449;-61
2022/01/17 10:37:33;;;;;;;12.57;6.50;;;5.70;99.90;;;;;;5089477;28;20394;-61
2022/01/17 10:40:01;;;;;;;12.53;6.70;;;5.70;99.90;;;;;;5089448;28;20447;-60
2022/01/17 10:42:29;;;;;;;10.43;6.10;;;5.60;99.90;;;;;;5088911;28;20393;-62
2022/01/17 10:45:04;;;;;;;11.02;6.03;;;5.50;99.90;;;;;;5089579;28;20846;-63
2022/01/17 10:47:30;;;;;;;12.50;6.70;;;5.20;99.90;;;;;;5088232;28;20401;-62
2022/01/17 10:50:03;;;;;;;13.45;7.30;;;5.10;99.90;;;;;;5089732;28;20792;-63
2022/01/17 10:52:35;;;;;;;14.88;7.65;;;5.30;99.90;;;;;;5089091;28;20382;-62
2022/01/17 10:55:22;;;;;;;13.02;7.53;;;5.40;99.90;;;;;;5088314;28;20790;-61
2022/01/17 10:58:02;;;;;;;13.00;7.18;;;5.40;99.90;;;;;;5088971;28;20409;-63
2022/01/17 11:00:45;;;;;;;12.40;6.85;;;5.10;99.90;;;;;;5088659;28;20745;-63
2022/01/17 11:03:13;;;;;;;13.88;7.30;;;5.00;99.90;;;;;;5087463;28;20394;-63
2022/01/17 11:05:41;;;;;;;10.52;6.63;;;4.90;99.90;;;;;;5089770;28;20862;-63
2022/01/17 11:08:08;;;;;;;14.05;7.47;;;4.70;99.90;;;;;;5087423;28;20375;-63
2022/01/17 11:10:45;;;;;;;15.25;7.70;;;5.70;99.90;;;;;;5089292;28;20386;-63
2022/01/17 11:13:15;;;;;;;13.95;7.47;;;6.10;99.90;;;;;;5088353;28;20519;-62
2022/01/17 11:15:44;;;;;;;15.48;8.27;;;4.60;99.90;;;;;;5088182;28;20887;-63
2022/01/17 11:18:21;;;;;;;13.95;7.43;;;5.70;99.90;;;;;;5088216;28;20412;-62
2022/01/17 11:20:49;;;;;;;14.38;7.90;;;4.60;99.90;;;;;;5089328;28;20405;-61
2022/01/17 11:23:15;;;;;;;14.20;7.87;;;4.70;99.90;;;;;;5088574;28;20946;-63
2022/01/17 11:25:44;;;;;;;13.20;7.60;;;4.80;99.90;;;;;;5089260;28;20488;-62
2022/01/17 11:28:11;;;;;;;14.07;7.93;;;4.60;99.90;;;;;;5088838;28;20378;-63
2022/01/17 11:30:38;;;;;;;13.30;7.47;;;4.60;99.90;;;;;;5088138;28;20420;-63
2022/01/17 11:33:09;;;;;;;13.60;7.50;;;4.50;99.90;;;;;;5092017;28;20839;-63
2022/01/17 11:35:41;;;;;;;13.52;7.05;;;4.60;99.90;;;;;;5093301;28;20435;-62
2022/01/17 11:38:11;;;;;;;13.38;7.50;;;4.60;99.90;;;;;;5092814;28;20424;-63
2022/01/17 11:40:39;;;;;;;13.40;7.32;;;4.60;99.90;;;;;;5092827;28;20506;-62
2022/01/17 11:43:19;;;;;;;12.25;6.75;;;4.60;99.90;;;;;;5093384;28;20459;-63
2022/01/17 11:45:45;;;;;;;11.57;6.70;;;4.60;99.90;;;;;;5093117;28;20389;-63
2022/01/17 11:48:23;;;;;;;13.95;6.90;;;4.80;99.90;;;;;;5092140;28;20428;-63
2022/01/17 11:50:52;;;;;;;13.63;6.93;;;4.90;99.90;;;;;;5092867;28;20847;-63
2022/01/17 11:53:18;;;;;;;13.48;6.97;;;4.80;99.90;;;;;;5092100;28;20432;-63
2022/01/17 11:55:44;;;;;;;13.77;7.30;;;4.80;99.90;;;;;;5092593;28;20378;-63
2022/01/17 11:58:22;;;;;;;12.90;7.50;;;5.00;99.90;;;;;;5091929;28;20559;-62
2022/01/17 12:00:57;;;;;;;12.82;6.47;;;5.00;99.90;;;;;;5092785;28;20410;-62
2022/01/17 12:03:27;;;;;;;12.70;7.00;;;4.80;99.90;;;;;;5090681;28;20790;-63
2022/01/17 12:05:55;;;;;;;11.60;6.73;;;4.70;99.90;;;;;;5092968;28;20392;-62
2022/01/17 12:08:23;;;;;;;11.35;6.80;;;4.80;99.90;;;;;;5090502;28;20952;-62
2022/01/17 12:10:57;;;;;;;13.50;7.80;;;4.80;99.90;;;;;;5092502;28;20394;-62
2022/01/17 12:14:03;;;;;;;16.02;7.10;;;4.90;99.90;;;;;;5091638;28;20439;-62
2022/01/17 12:16:30;;;;;;;12.80;7.20;;;4.90;99.90;;;;;;5089081;28;20417;-63
2022/01/17 12:18:59;;;;;;;15.00;7.13;;;4.90;99.90;;;;;;5092220;28;20481;-64
2022/01/17 12:22:04;;;;;;;14.60;7.78;;;5.00;99.90;;;;;;5091724;28;20475;-62
2022/01/17 12:24:37;;;;;;;13.65;7.47;;;5.00;99.90;;;;;;5091377;28;20378;-63
2022/01/17 12:27:06;;;;;;;14.68;7.63;;;4.80;99.90;;;;;;5092088;28;20868;-62
2022/01/17 12:30:08;;;;;;;12.70;7.18;;;4.90;99.90;;;;;;5091612;28;20477;-63
2022/01/17 12:32:36;;;;;;;14.33;8.37;;;5.00;99.90;;;;;;5092117;28;20414;-62
2022/01/17 12:35:05;;;;;;;15.65;8.05;;;4.90;99.90;;;;;;5091926;28;20472;-62
2022/01/17 12:37:44;;;;;;;15.70;8.00;;;4.90;99.90;;;;;;5091530;28;20765;-63
2022/01/17 12:40:19;;;;;;;15.32;7.82;;;5.00;99.90;;;;;;5091270;28;20413;-62
2022/01/17 12:43:08;;;;;;;14.48;7.75;;;5.20;99.90;;;;;;5091460;28;20456;-62
2022/01/17 12:45:36;;;;;;;15.63;7.28;;;5.00;99.90;;;;;;5077172;28;20394;-62
2022/01/17 12:48:06;;;;;;;14.68;7.53;;;4.90;99.90;;;;;;5092148;28;20477;-62
2022/01/17 12:50:33;;;;;;;15.40;8.30;;;4.90;99.90;;;;;;5090766;28;20378;-62
2022/01/17 12:53:01;;;;;;;17.70;8.50;;;4.90;99.90;;;;;;5091771;28;20374;-62
2022/01/17 12:55:43;;;;;;;16.40;7.80;;;5.00;99.90;;;;;;5089808;28;20393;-63
2022/01/17 12:58:12;;;;;;;15.52;8.23;;;5.00;99.90;;;;;;5089881;28;20385;-63
2022/01/17 13:00:44;;;;;;;14.10;7.33;;;5.00;99.90;;;;;;5091561;28;20470;-63
2022/01/17 13:03:11;;;;;;;13.43;7.30;;;5.00;99.90;;;;;;5091339;28;20465;-63
2022/01/17 13:05:39;;;;;;;14.95;8.00;;;4.90;99.90;;;;;;5091466;28;20374;-63
2022/01/17 13:08:05;;;;;;;15.05;7.53;;;5.00;99.90;;;;;;5091787;28;20382;-63
2022/01/17 13:10:31;;;;;;;16.02;7.63;;;5.10;99.90;;;;;;5090468;28;20973;-63
2022/01/17 13:12:57;;;;;;;14.75;7.70;;;5.00;99.90;;;;;;5091069;28;20461;-63
2022/01/17 13:15:24;;;;;;;13.93;6.57;;;5.00;99.90;;;;;;5088720;28;20949;-61
2022/01/17 13:17:53;;;;;;;12.60;6.45;;;4.90;99.90;;;;;;5089993;28;20485;-61